Alma, Arkansas
Current Conditions -  °F | °C
As of 7:53 PM on Monday 24 Nov 2014 (Local Time) from KFSM Reporting Station
Clear Clear  
Wind Chill: 44°   Ceiling: Unl
Heat Index: 47°   Visibility: 10mi
Dew Point: 26°   Wind: 7mph
Humidity: 44%   Direction: 260°W
Pressure: 30.06"   Gusts: NA
Location:  35.48°N, 94.22°W
Report Text: KFSM 250153Z 26006KT 10SM CLR 08/M03 A3006 RMK AO2 SLP182 T00831033
Loading
Personal Weather Stations






























Interactive Weather Map New forecast layout! Learn more

10-Day Weather Forecast

Advertisements
Track Severe Weather on mobile